Maribor, Maribor Airport (LJMB)

NameMaribor Airport
CityMaribor
CountrySlovenia
ICAOLJMB
IATAMBX
Altitude876 feet
CoordinatesGoogle Map
Live Air TrafficLiveATC.net
METARLJMB 230830Z 01009KT 330V090 CAVOK 26/16 Q1018
2024-07-23 08:30:00 Wind: North (10°) 4.63 m/s - Visibility: > 10000 m - Weather: CAVOK - Temperature: 26 °C - Dew point: 16 °C - Humidity: 54.1% - Pressure: 1018 hPa

Sorry, no flights used the airport in this database.